Time;durP1;ratioP1;P1;durP2;ratioP2;P2;SDS_P1;SDS_P2;PMS_P1;PMS_P2;Temp;Humidity;BMP_temperature;BMP_pressure;BME280_temperature;BME280_humidity;BME280_pressure;Samples;Min_cycle;Max_cycle;Signal;HPM_P1;HPM_P2
2023/04/09 00:02:08;;;;;;;0.75;0.52;;;;;;;3.64;100.00;100519.03;6129570;23;20332;-92
2023/04/09 00:04:34;;;;;;;0.22;0.15;;;;;;;3.70;100.00;100530.47;6179563;23;20068;-93
2023/04/09 00:06:59;;;;;;;0.20;0.20;;;;;;;3.61;100.00;100519.81;6181031;23;20017;-92
2023/04/09 00:09:25;;;;;;;1.80;0.82;;;;;;;3.61;100.00;100530.78;6179867;23;20427;-92
2023/04/09 00:11:50;;;;;;;2.20;1.75;;;;;;;3.74;100.00;100536.78;6178345;23;20017;-93
2023/04/09 00:14:18;;;;;;;2.50;2.33;;;;;;;3.62;100.00;100518.66;6129268;23;20091;-93
2023/04/09 00:16:44;;;;;;;0.57;0.55;;;;;;;3.70;100.00;100528.50;6154036;23;20104;-93
2023/04/09 00:19:10;;;;;;;2.08;1.42;;;;;;;3.64;100.00;100513.56;6180443;23;20036;-92
2023/04/09 00:21:36;;;;;;;1.80;1.70;;;;;;;3.62;100.00;100515.09;6181390;23;20051;-93
2023/04/09 00:24:02;;;;;;;2.63;1.48;;;;;;;3.70;100.00;100525.78;6180961;23;20028;-92
2023/04/09 00:26:30;;;;;;;0.52;0.52;;;;;;;3.69;100.00;100521.44;6156371;23;20025;-92
2023/04/09 00:28:59;;;;;;;0.68;0.68;;;;;;;3.65;100.00;100528.84;6183054;23;20013;-92
2023/04/09 00:31:24;;;;;;;1.27;1.08;;;;;;;3.66;100.00;100526.91;6182785;23;20017;-92
2023/04/09 00:33:50;;;;;;;0.57;0.57;;;;;;;3.59;100.00;100516.66;6179624;23;20344;-92
2023/04/09 00:36:15;;;;;;;2.10;1.98;;;;;;;3.71;100.00;100541.06;6180834;23;20013;-92
2023/04/09 00:38:41;;;;;;;0.30;0.30;;;;;;;3.56;100.00;100520.13;6155901;23;20040;-93
2023/04/09 00:41:09;;;;;;;0.90;0.90;;;;;;;3.64;100.00;100540.22;6192802;23;20013;-90
2023/04/09 00:43:34;;;;;;;0.52;0.52;;;;;;;3.56;100.00;100528.38;6159559;23;20055;-89
2023/04/09 00:46:00;;;;;;;1.65;1.35;;;;;;;3.66;100.00;100533.19;6135524;23;20016;-89
2023/04/09 00:48:26;;;;;;;4.95;1.63;;;;;;;3.62;100.00;100535.09;6135366;23;20012;-89
2023/04/09 00:50:52;;;;;;;1.40;1.33;;;;;;;3.62;100.00;100531.56;6160674;23;20477;-89
2023/04/09 00:53:17;;;;;;;0.75;0.60;;;;;;;3.57;100.00;100529.97;6184261;23;20035;-89
2023/04/09 00:55:44;;;;;;;0.98;0.98;;;;;;;3.59;100.00;100530.38;6160542;23;20008;-89
2023/04/09 00:58:10;;;;;;;0.95;0.90;;;;;;;3.60;100.00;100542.16;6160832;23;20020;-92
2023/04/09 01:00:36;;;;;;;1.55;1.45;;;;;;;3.51;100.00;100526.00;6159305;23;20344;-91
2023/04/09 01:12:32;;;;;;;0.65;0.65;;;;;;;3.58;100.00;100528.00;6211250;23;20503;-90
2023/04/09 01:15:07;;;;;;;1.23;0.50;;;;;;;3.50;100.00;100516.19;6135418;23;20020;-89
2023/04/09 01:17:51;;;;;;;1.48;1.40;;;;;;;3.62;100.00;100531.56;6185254;23;20016;-91
2023/04/09 01:20:39;;;;;;;;;;;;;;;3.62;100.00;100526.88;6214225;23;20444;-89
2023/04/09 01:23:42;;;;;;;0.85;0.85;;;;;;;3.64;100.00;100535.50;6159805;23;19915;-90
2023/04/09 01:27:04;;;;;;;1.42;1.35;;;;;;;3.62;100.00;100528.81;6185248;23;20028;-90
2023/04/09 01:29:53;;;;;;;0.05;0.05;;;;;;;3.61;100.00;100517.06;6189385;23;20158;-90
2023/04/09 01:32:19;;;;;;;1.10;1.00;;;;;;;3.55;100.00;100509.56;6184958;23;20013;-90
2023/04/09 01:34:46;;;;;;;0.75;0.73;;;;;;;3.58;100.00;100522.53;6185191;23;20020;-90
2023/04/09 01:37:12;;;;;;;0.30;0.30;;;;;;;3.49;100.00;100520.09;6160042;23;20008;-89
2023/04/09 01:39:38;;;;;;;2.65;0.88;;;;;;;3.45;100.00;100511.03;6160321;23;20016;-90
2023/04/09 01:42:08;;;;;;;1.42;1.33;;;;;;;3.49;100.00;100527.53;6160487;23;20019;-90
2023/04/09 01:44:37;;;;;;;1.35;1.27;;;;;;;3.33;100.00;100502.28;6161297;23;20417;-90
2023/04/09 01:47:03;;;;;;;1.38;1.17;;;;;;;3.42;100.00;100527.47;6159684;23;20017;-90
2023/04/09 01:49:29;;;;;;;1.98;1.45;;;;;;;3.32;100.00;100523.44;6160036;23;20504;-90
2023/04/09 01:51:54;;;;;;;2.35;2.15;;;;;;;3.25;100.00;100513.19;6185186;23;20020;-90
2023/04/09 01:54:20;;;;;;;1.30;1.23;;;;;;;3.25;100.00;100517.88;6159281;23;20455;-90
2023/04/09 01:56:47;;;;;;;0.77;0.77;;;;;;;3.27;100.00;100521.06;6212411;23;20042;-90
2023/04/09 01:59:13;;;;;;;0.98;0.85;;;;;;;3.23;100.00;100526.50;6159207;23;20032;-91
2023/04/09 02:01:46;;;;;;;0.63;0.55;;;;;;;3.19;100.00;100519.41;6130662;23;20005;-90
2023/04/09 02:04:22;;;;;;;1.13;1.10;;;;;;;3.06;100.00;100509.84;6130075;23;20024;-90
2023/04/09 02:06:50;;;;;;;0.65;0.65;;;;;;;3.19;100.00;100530.38;6131059;23;20039;-90
2023/04/09 02:09:18;;;;;;;0.30;0.30;;;;;;;3.16;100.00;100536.56;6180565;23;20262;-90
2023/04/09 02:11:47;;;;;;;3.50;3.20;;;;;;;3.15;100.00;100529.53;6125656;23;20357;-90
2023/04/09 02:14:12;;;;;;;0.00;0.00;;;;;;;3.06;100.00;100509.84;6124644;23;20022;-90
2023/04/09 02:16:39;;;;;;;2.67;2.47;;;;;;;3.05;100.00;100513.75;6150489;23;20124;-91
2023/04/09 02:19:04;;;;;;;2.30;1.55;;;;;;;3.08;100.00;100527.50;6124068;23;20017;-90
2023/04/09 02:21:31;;;;;;;0.10;0.10;;;;;;;3.06;100.00;100532.56;6100666;23;20013;-90
2023/04/09 02:23:56;;;;;;;1.55;1.25;;;;;;;3.11;100.00;100524.03;6125442;23;20033;-90
2023/04/09 02:26:23;;;;;;;0.30;0.30;;;;;;;3.09;100.00;100531.03;6101602;23;20093;-89
2023/04/09 02:28:49;;;;;;;0.10;0.10;;;;;;;3.06;100.00;100526.28;6149607;23;20026;-90
2023/04/09 02:31:15;;;;;;;1.40;1.30;;;;;;;3.14;100.00;100527.94;6125588;23;20061;-90
2023/04/09 02:33:41;;;;;;;3.35;2.97;;;;;;;3.18;100.00;100531.53;6100987;23;20009;-90
2023/04/09 02:36:10;;;;;;;1.65;1.55;;;;;;;3.12;100.00;100527.53;6100262;23;20017;-90
2023/04/09 02:38:36;;;;;;;0.98;0.98;;;;;;;3.07;100.00;100531.41;6125470;23;20020;-90
2023/04/09 02:41:01;;;;;;;0.55;0.55;;;;;;;3.05;100.00;100519.22;6149497;23;20010;-90
2023/04/09 02:43:27;;;;;;;3.15;1.55;;;;;;;3.08;100.00;100519.25;6149558;23;20048;-89
2023/04/09 02:45:53;;;;;;;0.50;0.50;;;;;;;3.14;100.00;100522.47;6125657;23;20024;-90
2023/04/09 02:48:18;;;;;;;0.70;0.70;;;;;;;3.15;100.00;100529.53;6125100;23;20009;-90
2023/04/09 02:50:44;;;;;;;0.50;0.50;;;;;;;3.16;100.00;100528.34;6124293;23;20060;-90
2023/04/09 02:53:10;;;;;;;0.20;0.20;;;;;;;3.14;100.00;100522.47;6100764;23;20017;-91
2023/04/09 02:55:35;;;;;;;4.97;1.98;;;;;;;3.17;100.00;100525.25;6100821;23;20013;-90
2023/04/09 02:58:01;;;;;;;1.02;0.88;;;;;;;3.14;100.00;100517.78;6124292;23;20084;-90
2023/04/09 03:00:26;;;;;;;1.30;1.20;;;;;;;3.15;100.00;100526.78;6098815;23;20021;-89
2023/04/09 03:02:53;;;;;;;4.68;3.08;;;;;;;3.09;100.00;100514.56;6124486;23;20048;-90
2023/04/09 03:05:19;;;;;;;1.65;1.55;;;;;;;3.13;100.00;100515.41;6149422;23;20393;-89
2023/04/09 03:07:46;;;;;;;0.35;0.35;;;;;;;3.04;100.00;100512.16;6148770;23;20012;-90
2023/04/09 03:10:11;;;;;;;0.90;0.85;;;;;;;3.11;100.00;100523.22;6149265;23;20096;-89
2023/04/09 03:12:37;;;;;;;0.70;0.70;;;;;;;3.11;100.00;100525.97;6099829;23;20048;-89
2023/04/09 03:15:03;;;;;;;2.13;2.03;;;;;;;3.12;100.00;100519.28;6100799;23;20021;-90
2023/04/09 03:17:30;;;;;;;0.60;0.60;;;;;;;3.14;100.00;100528.75;6125200;23;20013;-91
2023/04/09 03:19:56;;;;;;;1.27;1.23;;;;;;;3.14;100.00;100519.72;6125320;23;20121;-90
2023/04/09 03:22:22;;;;;;;1.58;1.35;;;;;;;3.09;100.00;100511.84;6124846;23;20005;-90
2023/04/09 03:24:51;;;;;;;0.68;0.68;;;;;;;3.11;100.00;100509.53;6124804;23;20045;-90
2023/04/09 03:27:17;;;;;;;2.72;2.03;;;;;;;3.18;100.00;100512.34;6124556;23;20453;-90
2023/04/09 03:29:42;;;;;;;2.38;2.22;;;;;;;3.14;100.00;100511.50;6124995;23;20037;-90
2023/04/09 03:32:08;;;;;;;2.15;1.67;;;;;;;3.11;100.00;100506.78;6125158;23;20018;-90
2023/04/09 03:34:34;;;;;;;1.35;1.27;;;;;;;3.18;100.00;100515.88;6101725;23;20101;-90
2023/04/09 03:37:00;;;;;;;0.63;0.63;;;;;;;3.01;100.00;100519.19;6127354;23;20014;-91
2023/04/09 03:39:29;;;;;;;2.22;1.33;;;;;;;3.06;100.00;100524.34;6151546;23;20013;-90
2023/04/09 03:41:57;;;;;;;0.55;0.55;;;;;;;3.03;100.00;100499.66;6125173;23;20065;-90
2023/04/09 03:44:24;;;;;;;1.77;1.67;;;;;;;2.86;100.00;100500.22;6099377;23;20037;-91
2023/04/09 03:47:21;;;;;;;1.00;0.75;;;;;;;2.85;100.00;100515.06;6134640;23;20029;-90
2023/04/09 03:49:49;;;;;;;1.90;1.73;;;;;;;2.78;100.00;100515.78;6100348;23;20458;-90
2023/04/09 03:52:19;;;;;;;2.35;2.08;;;;;;;2.73;100.00;100514.16;6101320;23;20016;-90
2023/04/09 03:54:52;;;;;;;1.73;1.63;;;;;;;2.72;100.00;100523.53;6126870;23;20369;-90
2023/04/09 03:57:22;;;;;;;0.85;0.85;;;;;;;2.62;100.00;100518.72;6102493;23;20013;-90
2023/04/09 03:59:50;;;;;;;1.65;1.55;;;;;;;2.55;100.00;100518.63;6126359;23;20100;-90
2023/04/09 04:02:19;;;;;;;1.23;1.13;;;;;;;2.31;100.00;100475.25;6101783;23;20024;-90
2023/04/09 04:04:52;;;;;;;;;;;;;;;2.55;100.00;100531.53;6127174;23;20319;-90
2023/04/09 04:07:19;;;;;;;1.73;1.63;;;;;;;2.53;100.00;100531.91;6126015;23;19975;-90
2023/04/09 04:09:52;;;;;;;0.63;0.63;;;;;;;2.46;100.00;100534.56;6148827;23;20013;-90
2023/04/09 04:12:18;;;;;;;1.75;1.05;;;;;;;2.39;100.00;100528.94;6125865;23;20021;-90
2023/04/09 04:15:19;;;;;;;2.38;2.17;;;;;;;2.36;100.00;100535.19;6110871;23;20540;-89
2023/04/09 04:17:50;;;;;;;2.17;2.05;;;;;;;2.43;100.00;100538.00;6102991;23;20017;-92
2023/04/09 04:20:42;;;;;;;0.90;0.88;;;;;;;2.19;100.00;100516.53;6129013;23;20100;-90
2023/04/09 04:23:11;;;;;;;0.32;0.32;;;;;;;2.24;100.00;100529.91;6125517;23;20096;-90
2023/04/09 04:25:45;;;;;;;0.63;0.63;;;;;;;2.24;100.00;100540.88;6081430;23;20024;-90
2023/04/09 04:28:14;;;;;;;2.35;2.20;;;;;;;2.17;100.00;100540.75;6102479;23;20021;-90
2023/04/09 04:30:41;;;;;;;1.38;1.27;;;;;;;2.17;100.00;100543.50;6102189;23;20025;-89
2023/04/09 04:33:07;;;;;;;1.40;1.30;;;;;;;2.19;100.00;100552.91;6102075;23;20100;-90
2023/04/09 04:35:41;;;;;;;0.80;0.80;;;;;;;2.21;100.00;100552.56;6125885;23;20022;-90
2023/04/09 04:38:14;;;;;;;4.75;4.18;;;;;;;2.17;100.00;100549.78;6103158;23;20080;-90
2023/04/09 04:40:40;;;;;;;1.92;1.63;;;;;;;2.22;100.00;100548.66;6125935;23;20014;-90
2023/04/09 04:43:06;;;;;;;1.55;1.45;;;;;;;2.23;100.00;100551.03;6125733;23;20125;-90
2023/04/09 04:45:32;;;;;;;1.02;1.02;;;;;;;2.24;100.00;100552.59;6125737;23;20040;-90
2023/04/09 04:48:06;;;;;;;1.75;1.65;;;;;;;2.16;100.00;100533.69;6105201;23;20005;-90
2023/04/09 04:50:32;;;;;;;0.80;0.80;;;;;;;2.24;100.00;100549.06;6150419;23;20097;-89
2023/04/09 04:53:02;;;;;;;0.45;0.45;;;;;;;2.18;100.00;100548.63;6126540;23;20013;-90
2023/04/09 04:55:36;;;;;;;1.17;1.08;;;;;;;2.22;100.00;100548.66;6079463;23;20033;-90
2023/04/09 04:58:02;;;;;;;1.45;1.35;;;;;;;2.21;100.00;100536.13;6101155;23;20013;-90
2023/04/09 05:00:36;;;;;;;;;;;;;;;2.35;100.00;100547.28;6125482;23;20392;-90
2023/04/09 05:03:02;;;;;;;0.38;0.35;;;;;;;2.41;100.00;100555.97;6125596;23;19952;-90
2023/04/09 05:05:53;;;;;;;1.52;1.42;;;;;;;2.46;100.00;100556.47;6116420;23;20021;-89
2023/04/09 05:08:20;;;;;;;1.10;0.85;;;;;;;2.47;100.00;100554.50;6124327;23;20013;-90
2023/04/09 05:10:50;;;;;;;2.47;2.28;;;;;;;2.50;100.00;100557.28;6125532;23;20013;-90
2023/04/09 05:13:16;;;;;;;0.20;0.20;;;;;;;2.37;100.00;100552.41;6123905;23;20021;-89
2023/04/09 05:15:41;;;;;;;2.28;1.92;;;;;;;2.27;100.00;100540.13;6125044;23;20024;-90
2023/04/09 05:18:08;;;;;;;2.72;1.55;;;;;;;2.51;100.00;100561.59;6125009;23;20349;-91
2023/04/09 05:20:35;;;;;;;0.52;0.52;;;;;;;2.36;100.00;100546.13;6099920;23;20014;-89
2023/04/09 05:23:11;;;;;;;1.48;1.45;;;;;;;2.59;100.00;100574.22;6120669;23;20017;-91
2023/04/09 05:25:42;;;;;;;4.03;3.15;;;;;;;2.31;100.00;100519.84;6097148;23;20025;-90
2023/04/09 05:28:17;;;;;;;0.10;0.10;;;;;;;2.64;100.00;100559.41;6123459;23;20018;-90
2023/04/09 05:30:46;;;;;;;0.52;0.52;;;;;;;2.78;100.00;100574.13;6101788;23;20076;-90
2023/04/09 05:33:12;;;;;;;1.40;1.10;;;;;;;2.75;100.00;100546.69;6099456;23;20025;-91
2023/04/09 05:35:41;;;;;;;5.63;2.20;;;;;;;2.90;100.00;100561.34;6148357;23;20476;-91
2023/04/09 05:38:07;;;;;;;0.82;0.82;;;;;;;2.90;100.00;100553.91;6074854;23;20029;-90
2023/04/09 05:40:34;;;;;;;0.88;0.88;;;;;;;3.01;100.00;100565.00;6124527;23;20353;-91
2023/04/09 05:43:01;;;;;;;2.42;1.50;;;;;;;3.04;100.00;100572.47;6099762;23;20013;-90
2023/04/09 05:45:52;;;;;;;1.95;1.35;;;;;;;3.02;100.00;100569.31;6131262;23;20100;-90
2023/04/09 05:48:18;;;;;;;0.60;0.60;;;;;;;3.12;100.00;100577.66;6110958;23;20056;-90
2023/04/09 05:50:51;;;;;;;0.82;0.82;;;;;;;3.12;100.00;100579.59;6134196;23;20017;-91
2023/04/09 05:53:21;;;;;;;0.57;0.57;;;;;;;3.19;100.00;100596.16;6104496;23;20013;-90
2023/04/09 05:55:48;;;;;;;1.00;1.00;;;;;;;3.17;100.00;100584.75;6100663;23;20480;-90
2023/04/09 05:58:14;;;;;;;0.80;0.80;;;;;;;3.26;100.00;100588.81;6074633;23;20413;-90
2023/04/09 06:00:41;;;;;;;1.65;1.55;;;;;;;3.28;100.00;100571.97;6148124;23;20045;-90
2023/04/09 06:03:08;;;;;;;0.90;0.90;;;;;;;3.51;100.00;100575.38;6123278;23;20013;-91
2023/04/09 06:05:34;;;;;;;0.63;0.52;;;;;;;3.59;100.00;100577.00;6124193;23;20052;-90
2023/04/09 06:08:00;;;;;;;1.40;1.25;;;;;;;3.68;100.00;100574.72;6098495;23;20401;-90
2023/04/09 06:10:26;;;;;;;1.15;1.05;;;;;;;3.97;100.00;100596.94;6123665;23;20040;-91
2023/04/09 06:12:51;;;;;;;1.50;1.42;;;;;;;4.12;100.00;100598.66;6122467;23;20017;-90
2023/04/09 06:15:17;;;;;;;1.23;0.57;;;;;;;4.18;100.00;100597.94;6122957;23;20117;-90
2023/04/09 06:17:43;;;;;;;4.07;2.05;;;;;;;4.18;100.00;100583.41;6098847;23;20464;-91
2023/04/09 06:20:09;;;;;;;0.65;0.65;;;;;;;4.46;100.00;100600.09;6099198;23;20010;-90
2023/04/09 06:22:35;;;;;;;1.58;0.82;;;;;;;4.57;100.00;100598.19;6098798;23;20010;-90
2023/04/09 06:25:00;;;;;;;2.20;1.33;;;;;;;4.74;100.00;100587.69;6148412;23;20008;-91
2023/04/09 06:27:26;;;;;;;0.77;0.77;;;;;;;5.03;100.00;100605.91;6098395;23;20795;-91
2023/04/09 06:29:52;;;;;;;1.23;1.15;;;;;;;5.19;100.00;100603.63;6149711;23;20263;-91
2023/04/09 06:32:17;;;;;;;0.95;0.95;;;;;;;5.30;100.00;100609.97;6147963;23;20020;-91
2023/04/09 06:34:43;;;;;;;1.80;1.70;;;;;;;5.39;100.00;100596.63;6147794;23;20017;-91
2023/04/09 06:37:08;;;;;;;0.68;0.68;;;;;;;5.53;100.00;100604.94;6149576;23;20021;-91
2023/04/09 06:39:34;;;;;;;1.33;1.33;;;;;;;5.48;100.00;100575.06;6099819;23;20013;-91
2023/04/09 06:41:59;;;;;;;0.80;0.80;;;;;;;5.69;100.00;100612.06;6149109;23;20017;-91
2023/04/09 06:44:36;;;;;;;0.82;0.82;;;;;;;5.73;100.00;100597.13;6101599;23;20449;-92
2023/04/09 06:47:02;;;;;;;0.45;0.45;;;;;;;5.87;100.00;100605.41;6100077;23;20095;-92
2023/04/09 06:49:27;;;;;;;0.65;0.55;;;;;;;6.06;100.00;100604.28;6149762;23;20020;-90
2023/04/09 06:51:53;;;;;;;0.88;0.88;;;;;;;6.24;100.00;100605.06;6148873;23;20041;-92
2023/04/09 06:54:19;;;;;;;0.90;0.88;;;;;;;6.26;100.00;100586.19;6123708;23;20426;-90
2023/04/09 06:56:45;;;;;;;0.90;0.47;;;;;;;6.21;100.00;100605.84;6124244;23;20021;-91
2023/04/09 06:59:10;;;;;;;1.95;1.38;;;;;;;6.21;100.00;100597.59;6098501;23;20104;-90
2023/04/09 07:01:42;;;;;;;1.27;1.20;;;;;;;6.27;100.00;100593.25;6123507;23;20017;-90
2023/04/09 07:04:08;;;;;;;0.20;0.20;;;;;;;6.50;100.00;100609.38;6124763;23;20016;-90
2023/04/09 07:06:34;;;;;;;1.13;1.13;;;;;;;6.50;100.00;100618.44;6149745;23;20033;-91
2023/04/09 07:08:59;;;;;;;1.55;0.57;;;;;;;6.61;100.00;100593.59;6100132;23;20033;-91
2023/04/09 07:11:25;;;;;;;2.70;1.17;;;;;;;7.00;100.00;100607.28;6099390;23;20017;-91
2023/04/09 07:13:55;;;;;;;0.57;0.50;;;;;;;7.43;100.00;100603.19;6123443;23;20017;-91
2023/04/09 07:16:21;;;;;;;0.70;0.70;;;;;;;7.97;100.00;100607.19;6099646;23;20437;-92
2023/04/09 07:18:46;;;;;;;0.17;0.17;;;;;;;8.26;100.00;100582.09;6076094;23;20024;-92
2023/04/09 07:21:12;;;;;;;0.73;0.63;;;;;;;8.42;100.00;100607.25;6150381;23;20006;-91
2023/04/09 07:23:38;;;;;;;0.47;0.47;;;;;;;8.93;100.00;100606.38;6150846;23;20009;-90
2023/04/09 07:26:04;;;;;;;0.50;0.47;;;;;;;9.06;100.00;100603.88;6149082;23;20017;-90
2023/04/09 07:28:30;;;;;;;1.90;1.80;;;;;;;9.34;100.00;100607.03;6124806;23;20011;-90
2023/04/09 07:30:55;;;;;;;3.15;1.95;;;;;;;9.46;100.00;100599.41;6126779;23;20017;-90
2023/04/09 07:33:21;;;;;;;3.65;0.75;;;;;;;9.45;100.00;100614.44;6151796;23;20045;-91
2023/04/09 07:35:47;;;;;;;2.85;0.88;;;;;;;9.06;100.00;100590.78;6126458;23;20377;-91
2023/04/09 07:38:12;;;;;;;0.75;0.60;;;;;;;8.85;100.00;100599.34;6078141;23;20013;-91
2023/04/09 07:40:38;;;;;;;0.63;0.63;;;;;;;8.43;100.00;100595.81;6125796;23;20073;-89
2023/04/09 07:43:04;;;;;;;1.00;1.00;;;;;;;8.40;100.00;100621.50;6150214;23;20311;-89
2023/04/09 07:45:30;;;;;;;0.20;0.20;;;;;;;8.11;100.00;100620.13;6126121;23;20092;-90
2023/04/09 07:47:55;;;;;;;1.27;0.98;;;;;;;7.90;100.00;100607.25;6101948;23;20041;-89
2023/04/09 07:50:24;;;;;;;0.32;0.32;;;;;;;7.99;100.00;100606.78;6150820;23;20013;-91
2023/04/09 07:52:54;;;;;;;1.38;1.02;;;;;;;7.96;100.00;100619.44;6099219;23;20088;-91
2023/04/09 07:55:19;;;;;;;1.05;0.85;;;;;;;8.13;100.00;100620.50;6125210;23;20005;-90
2023/04/09 07:57:45;;;;;;;0.50;0.50;;;;;;;8.28;100.00;100618.41;6124903;23;20024;-91
2023/04/09 08:00:11;;;;;;;1.15;1.08;;;;;;;8.20;100.00;100606.63;6150228;23;20366;-90
2023/04/09 08:02:42;;;;;;;0.28;0.28;;;;;;;8.14;100.00;100622.06;6125801;23;20041;-90
2023/04/09 08:05:08;;;;;;;2.25;1.48;;;;;;;8.24;100.00;100628.72;6125513;23;20017;-91
2023/04/09 08:07:34;;;;;;;0.52;0.52;;;;;;;8.04;100.00;100631.22;6100221;23;20025;-91
2023/04/09 08:09:59;;;;;;;0.55;0.55;;;;;;;8.18;100.00;100625.59;6150791;23;20342;-90
2023/04/09 08:12:25;;;;;;;0.60;0.60;;;;;;;8.05;100.00;100621.72;6148794;23;20091;-90
2023/04/09 08:14:51;;;;;;;1.85;1.00;;;;;;;7.90;100.00;100628.56;6123571;23;20457;-92
2023/04/09 08:17:20;;;;;;;1.38;1.27;;;;;;;8.10;100.00;100635.13;6124219;23;20028;-90
2023/04/09 08:19:48;;;;;;;1.42;1.33;;;;;;;8.07;100.00;100624.09;6101062;23;20446;-90
2023/04/09 08:22:14;;;;;;;0.20;0.20;;;;;;;8.14;100.00;100619.31;6077044;23;20020;-91
2023/04/09 08:24:42;;;;;;;0.15;0.15;;;;;;;8.25;100.00;100630.28;6150507;23;20020;-91
2023/04/09 08:27:08;;;;;;;1.45;1.05;;;;;;;8.45;100.00;100650.69;6125734;23;20028;-91
2023/04/09 08:29:33;;;;;;;0.20;0.20;;;;;;;8.34;100.00;100634.19;6125032;23;20013;-91
2023/04/09 08:31:59;;;;;;;1.52;0.85;;;;;;;8.26;100.00;100638.16;6124812;23;20409;-90
2023/04/09 08:34:25;;;;;;;0.85;0.85;;;;;;;8.16;100.00;100649.31;6124123;23;20064;-90
2023/04/09 08:36:50;;;;;;;1.75;1.65;;;;;;;7.99;100.00;100628.88;6124414;23;20006;-91
2023/04/09 08:39:18;;;;;;;0.88;0.77;;;;;;;7.97;100.00;100636.78;6149814;23;20028;-90
2023/04/09 08:41:45;;;;;;;0.50;0.50;;;;;;;7.79;100.00;100634.16;6149010;23;20012;-91
2023/04/09 08:44:10;;;;;;;1.02;0.95;;;;;;;7.78;100.00;100629.03;6148386;23;20037;-90
2023/04/09 08:46:45;;;;;;;1.08;0.85;;;;;;;7.97;100.00;100642.31;6150992;23;20008;-91
2023/04/09 08:49:11;;;;;;;0.77;0.77;;;;;;;7.91;100.00;100621.84;6124022;23;20433;-91
2023/04/09 08:51:38;;;;;;;0.57;0.57;;;;;;;8.09;100.00;100646.59;6099719;23;20006;-90
2023/04/09 08:54:03;;;;;;;1.20;1.10;;;;;;;7.95;100.00;100639.97;6149234;23;20020;-91
2023/04/09 08:56:29;;;;;;;0.75;0.50;;;;;;;7.98;100.00;100627.31;6149458;23;20021;-91
2023/04/09 08:58:55;;;;;;;0.77;0.77;;;;;;;8.19;100.00;100654.81;6099508;23;20017;-91
2023/04/09 09:01:26;;;;;;;1.15;1.10;;;;;;;8.29;100.00;100640.13;6124300;23;20009;-91
2023/04/09 09:04:02;;;;;;;0.38;0.38;;;;;;;8.34;100.00;100631.41;6124344;23;20017;-91
2023/04/09 09:06:31;;;;;;;0.68;0.68;;;;;;;8.58;100.00;100648.19;6100461;23;20540;-91
2023/04/09 09:09:17;;;;;;;1.10;0.93;;;;;;;8.74;100.00;100646.47;6100331;23;20016;-91
2023/04/09 09:11:47;;;;;;;0.32;0.32;;;;;;;8.68;100.00;100636.25;6124509;23;20029;-91
2023/04/09 09:14:14;;;;;;;1.65;1.30;;;;;;;8.81;100.00;100640.88;6098429;23;20036;-91
2023/04/09 09:16:42;;;;;;;0.30;0.30;;;;;;;8.76;100.00;100648.81;6124983;23;20021;-91
2023/04/09 09:19:32;;;;;;;0.10;0.10;;;;;;;8.67;100.00;100656.81;6076207;23;20041;-91
2023/04/09 09:22:00;;;;;;;0.13;0.13;;;;;;;8.80;100.00;100652.34;6149891;23;20020;-91
2023/04/09 09:24:26;;;;;;;1.02;0.95;;;;;;;9.02;100.00;100656.44;6099406;23;20358;-91
2023/04/09 09:26:53;;;;;;;0.35;0.35;;;;;;;9.07;100.00;100647.72;6150878;23;20013;-91
2023/04/09 09:29:19;;;;;;;0.50;0.50;;;;;;;9.49;100.00;100653.97;6123547;23;20034;-92
2023/04/09 09:31:48;;;;;;;0.15;0.15;;;;;;;10.03;95.26;100647.25;6124896;23;20013;-91
2023/04/09 09:34:18;;;;;;;0.10;0.10;;;;;;;10.66;86.77;100628.06;6124321;23;20786;-91
2023/04/09 09:36:44;;;;;;;0.70;0.55;;;;;;;11.22;78.90;100632.53;6125167;23;20085;-91
2023/04/09 09:39:12;;;;;;;0.63;0.63;;;;;;;11.50;75.93;100624.84;6099202;23;20022;-91
2023/04/09 09:41:38;;;;;;;0.60;0.40;;;;;;;11.59;76.87;100619.50;6120558;23;20045;-91
2023/04/09 09:44:34;;;;;;;0.88;0.55;;;;;;;11.47;76.07;100632.03;6099752;23;20005;-95
2023/04/09 09:46:59;;;;;;;0.50;0.50;;;;;;;10.44;76.78;100607.44;6080252;23;20033;-95
2023/04/09 09:49:25;;;;;;;0.63;0.63;;;;;;;10.41;78.41;100627.69;6101166;23;20010;-94
2023/04/09 09:51:52;;;;;;;0.35;0.35;;;;;;;10.44;80.68;100611.00;6100787;23;20454;-95
2023/04/09 09:57:52;;;;;;;1.10;0.98;;;;;;;9.94;81.54;100619.31;6152021;23;20084;-90
2023/04/09 10:00:18;;;;;;;1.00;0.80;;;;;;;10.00;85.19;100650.88;6076566;23;20025;-89
2023/04/09 10:02:49;;;;;;;2.58;1.80;;;;;;;9.66;85.10;100647.41;6108307;23;20440;-89
2023/04/09 10:05:15;;;;;;;1.20;1.02;;;;;;;9.39;87.59;100630.72;6094977;23;20036;-89
2023/04/09 10:07:41;;;;;;;0.65;0.65;;;;;;;9.28;92.69;100641.16;6047221;23;20014;-93
2023/04/09 10:10:08;;;;;;;1.55;0.90;;;;;;;9.07;97.62;100630.31;6096039;23;20445;-94
2023/04/09 10:12:33;;;;;;;0.90;0.77;;;;;;;8.76;97.20;100612.88;6072362;23;20014;-93
2023/04/09 10:15:03;;;;;;;1.17;0.82;;;;;;;8.67;100.00;100656.81;6096010;23;20077;-94
2023/04/09 10:17:30;;;;;;;0.95;0.88;;;;;;;8.54;100.00;100647.44;6096841;23;20096;-92
2023/04/09 10:20:06;;;;;;;3.47;0.40;;;;;;;8.31;100.00;100639.75;6096080;23;20009;-93
2023/04/09 10:22:33;;;;;;;0.55;0.55;;;;;;;8.23;100.00;100636.22;6071523;23;20045;-94
2023/04/09 10:24:59;;;;;;;0.38;0.38;;;;;;;8.14;100.00;100624.84;6071651;23;20030;-94
2023/04/09 10:27:25;;;;;;;1.70;1.60;;;;;;;8.30;100.00;100663.03;6121269;23;20321;-89
2023/04/09 10:29:51;;;;;;;0.63;0.63;;;;;;;7.86;100.00;100641.59;6047524;23;20022;-89
2023/04/09 10:32:27;;;;;;;0.20;0.20;;;;;;;7.90;100.00;100647.88;6094281;23;20010;-88
2023/04/09 10:34:56;;;;;;;1.58;0.88;;;;;;;8.00;100.00;100654.53;6096371;23;20022;-89
2023/04/09 10:37:24;;;;;;;1.85;1.70;;;;;;;7.76;100.00;100636.94;6094799;23;20020;-92
2023/04/09 10:39:51;;;;;;;0.77;0.77;;;;;;;7.95;100.00;100656.53;6093710;23;20271;-92
2023/04/09 10:42:23;;;;;;;0.43;0.43;;;;;;;8.01;100.00;100648.59;6094547;23;20013;-93
2023/04/09 10:45:07;;;;;;;0.85;0.75;;;;;;;8.20;100.00;100648.09;6071161;23;20135;-93
2023/04/09 10:55:40;;;;;;;0.28;0.28;;;;;;;8.32;100.00;100631.06;6177264;23;20037;-94
2023/04/09 10:58:09;;;;;;;0.63;0.63;;;;;;;8.49;100.00;100601.69;6130701;23;20028;-94
2023/04/09 11:00:43;;;;;;;1.48;1.35;;;;;;;8.86;100.00;100631.31;6155337;23;20021;-96
2023/04/09 11:03:21;;;;;;;0.43;0.43;;;;;;;8.78;100.00;100638.13;6154701;23;20092;-94
2023/04/09 11:06:08;;;;;;;0.88;0.88;;;;;;;8.59;100.00;100638.72;6154825;23;20035;-96
2023/04/09 11:08:34;;;;;;;0.40;0.40;;;;;;;8.13;100.00;100623.25;6156105;23;20017;-95
2023/04/09 11:11:02;;;;;;;0.95;0.68;;;;;;;7.99;100.00;100581.94;6131469;23;19997;-94
2023/04/09 11:13:30;;;;;;;0.38;0.38;;;;;;;8.42;100.00;100616.34;6154781;23;20120;-96
2023/04/09 11:15:56;;;;;;;0.35;0.35;;;;;;;8.30;100.00;100578.16;6154903;23;20009;-95
2023/04/09 11:18:24;;;;;;;1.48;0.98;;;;;;;8.55;100.00;100602.00;6127702;23;20017;-94
2023/04/09 11:20:56;;;;;;;0.63;0.63;;;;;;;8.42;100.00;100585.94;6155403;23;20017;-94
2023/04/09 11:23:23;;;;;;;1.88;1.52;;;;;;;8.66;100.00;100622.84;6152401;23;20794;-88
2023/04/09 11:25:50;;;;;;;0.47;0.47;;;;;;;8.72;100.00;100625.94;6129878;23;20013;-88
2023/04/09 11:28:15;;;;;;;1.88;1.77;;;;;;;8.46;100.00;100599.72;6128878;23;20028;-88
2023/04/09 11:30:42;;;;;;;2.50;0.85;;;;;;;8.65;100.00;100656.44;6153614;23;20040;-88
2023/04/09 11:33:08;;;;;;;0.75;0.75;;;;;;;8.29;100.00;100582.09;6129692;23;20017;-88
2023/04/09 11:35:37;;;;;;;0.35;0.35;;;;;;;8.59;100.00;100644.25;6154231;23;20060;-88
2023/04/09 11:38:10;;;;;;;0.45;0.45;;;;;;;8.28;100.00;100590.78;6106256;23;20035;-87
2023/04/09 11:40:42;;;;;;;0.77;0.77;;;;;;;8.37;100.00;100608.47;6154219;23;20017;-88
2023/04/09 11:43:07;;;;;;;0.52;0.52;;;;;;;8.30;100.00;100605.00;6130304;23;20084;-88
2023/04/09 11:45:33;;;;;;;0.73;0.73;;;;;;;8.22;100.00;100612.53;6154428;23;20061;-87
2023/04/09 11:47:59;;;;;;;0.28;0.28;;;;;;;8.40;100.00;100638.09;6154448;23;20013;-87
2023/04/09 11:50:25;;;;;;;0.30;0.30;;;;;;;8.14;100.00;100618.50;6128625;23;20027;-88
2023/04/09 11:52:51;;;;;;;1.55;1.45;;;;;;;8.32;100.00;100655.94;6129320;23;20075;-88
2023/04/09 11:55:27;;;;;;;0.50;0.50;;;;;;;8.23;100.00;100650.03;6179611;23;20017;-88